createdAt,value
2019-03-16T00:00:37.257Z,1001.94
2019-03-16T00:01:37.305Z,1001.99
2019-03-16T00:03:30.319Z,1001.99
2019-03-16T00:04:30.338Z,1001.96
2019-03-16T00:06:23.316Z,1001.93
2019-03-16T00:07:32.891Z,1001.89
2019-03-16T00:09:16.379Z,1001.94
2019-03-16T00:10:16.414Z,1001.94
2019-03-16T00:12:09.388Z,1002.03
2019-03-16T00:13:09.443Z,1001.96
2019-03-16T00:15:02.480Z,1001.98
2019-03-16T00:16:02.492Z,1001.97
2019-03-16T00:17:55.508Z,1001.94
2019-03-16T00:18:55.525Z,1002.03
2019-03-16T00:20:48.564Z,1002.03
2019-03-16T00:21:48.557Z,1002.07
2019-03-16T00:23:41.562Z,1002.16
2019-03-16T00:24:41.594Z,1002.14
2019-03-16T00:26:34.567Z,1002.08
2019-03-16T00:27:34.624Z,1002.06
2019-03-16T00:29:27.632Z,1002.09
2019-03-16T00:30:27.656Z,1002.12
2019-03-16T00:32:20.637Z,1002.17
2019-03-16T00:33:20.696Z,1002.18
2019-03-16T00:35:13.701Z,1002.25
2019-03-16T00:36:13.728Z,1002.25
2019-03-16T00:38:06.701Z,1002.25
2019-03-16T00:39:06.762Z,1002.29
2019-03-16T00:40:59.779Z,1002.33
2019-03-16T00:41:59.811Z,1002.29
2019-03-16T00:43:52.788Z,1002.28
2019-03-16T00:44:52.837Z,1002.27
2019-03-16T00:46:45.849Z,1002.25
2019-03-16T00:47:45.916Z,1002.30
2019-03-16T00:49:38.886Z,1002.27
2019-03-16T00:50:38.924Z,1002.25
2019-03-16T00:52:31.917Z,1002.23
2019-03-16T00:53:31.948Z,1002.26
2019-03-16T00:55:24.934Z,1002.35
2019-03-16T00:56:24.990Z,1002.34
2019-03-16T00:58:17.999Z,1002.30
2019-03-16T00:59:18.026Z,1002.32
2019-03-16T01:01:11.014Z,1002.29
2019-03-16T01:02:11.070Z,1002.25
2019-03-16T01:04:04.066Z,1002.20
2019-03-16T01:05:04.112Z,1002.25
2019-03-16T01:06:57.107Z,1002.18
2019-03-16T01:07:57.149Z,1002.17
2019-03-16T01:09:50.160Z,1002.11
2019-03-16T01:10:50.181Z,1002.14
2019-03-16T01:12:43.205Z,1002.24
2019-03-16T01:13:43.260Z,1002.30
2019-03-16T01:15:36.358Z,1002.38
2019-03-16T01:16:36.292Z,1002.40
2019-03-16T01:18:29.273Z,1002.40
2019-03-16T01:19:29.328Z,1002.32
2019-03-16T01:21:22.348Z,1002.31
2019-03-16T01:22:22.437Z,1002.33
2019-03-16T01:24:15.350Z,1002.38
2019-03-16T01:25:15.405Z,1002.45
2019-03-16T01:27:08.415Z,1002.48
2019-03-16T01:28:08.449Z,1002.43
2019-03-16T01:30:01.430Z,1002.39
2019-03-16T01:31:01.480Z,1002.42
2019-03-16T01:32:54.476Z,1002.46
2019-03-16T01:33:54.513Z,1002.45
2019-03-16T01:35:47.501Z,1002.46
2019-03-16T01:36:47.549Z,1002.45
2019-03-16T01:38:40.560Z,1002.46
2019-03-16T01:39:40.617Z,1002.48
2019-03-16T01:41:33.573Z,1002.51
2019-03-16T01:42:33.628Z,1002.51
2019-03-16T01:44:26.626Z,1002.40
2019-03-16T01:45:26.664Z,1002.38
2019-03-16T01:47:19.680Z,1002.47
2019-03-16T01:48:19.699Z,1002.42
2019-03-16T01:50:12.684Z,1002.39
2019-03-16T01:51:12.740Z,1002.40
2019-03-16T01:53:05.750Z,1002.44
2019-03-16T01:54:05.781Z,1002.46
2019-03-16T01:55:58.757Z,1002.49
2019-03-16T01:56:58.813Z,1002.51
2019-03-16T01:58:51.832Z,1002.55
2019-03-16T01:59:51.851Z,1002.57
2019-03-16T02:01:44.826Z,1002.56
2019-03-16T02:02:55.166Z,1002.54
2019-03-16T02:04:37.885Z,1002.48
2019-03-16T02:05:37.930Z,1002.50
2019-03-16T02:07:30.978Z,1002.51
2019-03-16T02:08:31.001Z,1002.47
2019-03-16T02:10:23.982Z,1002.45
2019-03-16T02:11:24.038Z,1002.43
2019-03-16T02:13:17.076Z,1002.46
2019-03-16T02:14:17.091Z,1002.46
2019-03-16T02:16:11.548Z,1002.45
2019-03-16T02:17:10.147Z,1002.46
2019-03-16T02:19:03.122Z,1002.40
2019-03-16T02:20:03.157Z,1002.39
2019-03-16T02:21:56.176Z,1002.41
2019-03-16T02:22:56.208Z,1002.41
2019-03-16T02:24:49.226Z,1002.48
2019-03-16T02:25:49.242Z,1002.48
2019-03-16T02:27:42.237Z,1002.49
2019-03-16T02:28:42.296Z,1002.52
2019-03-16T02:30:35.305Z,1002.50
2019-03-16T02:31:35.350Z,1002.54
2019-03-16T02:33:28.319Z,1002.45
2019-03-16T02:34:28.374Z,1002.45
2019-03-16T02:36:21.379Z,1002.33
2019-03-16T02:37:21.412Z,1002.30
2019-03-16T02:39:14.410Z,1002.39
2019-03-16T02:40:14.468Z,1002.35
2019-03-16T02:42:07.429Z,1002.54
2019-03-16T02:43:07.487Z,1002.65
2019-03-16T02:45:00.500Z,1002.64
2019-03-16T02:46:00.524Z,1002.65
2019-03-16T02:47:53.522Z,1002.65
2019-03-16T02:48:53.556Z,1002.65
2019-03-16T02:50:46.548Z,1002.61
2019-03-16T02:51:46.591Z,1002.52
2019-03-16T02:53:39.567Z,1002.54
2019-03-16T02:54:39.644Z,1002.61
2019-03-16T02:56:32.627Z,1002.70
2019-03-16T02:57:32.658Z,1002.70
2019-03-16T02:59:25.636Z,1002.64
2019-03-16T03:00:25.696Z,1002.71
2019-03-16T03:02:18.689Z,1002.69
2019-03-16T03:03:29.132Z,1002.60
2019-03-16T03:05:11.747Z,1002.64
2019-03-16T03:06:11.794Z,1002.70
2019-03-16T03:08:04.761Z,1002.67
2019-03-16T03:09:04.799Z,1002.60
2019-03-16T03:10:57.799Z,1002.66
2019-03-16T03:11:57.853Z,1002.67
2019-03-16T03:13:50.898Z,1002.60
2019-03-16T03:14:50.872Z,1002.59
2019-03-16T03:16:43.874Z,1002.59
2019-03-16T03:17:43.908Z,1002.58
2019-03-16T03:19:36.888Z,1002.55
2019-03-16T03:20:36.954Z,1002.58
2019-03-16T03:22:29.946Z,1002.62
2019-03-16T03:23:29.987Z,1002.61
2019-03-16T03:25:22.980Z,1002.62
2019-03-16T03:26:23.016Z,1002.62
2019-03-16T03:28:16.015Z,1002.67
2019-03-16T03:29:16.052Z,1002.63
2019-03-16T03:31:09.106Z,1002.66
2019-03-16T03:32:09.134Z,1002.61
2019-03-16T03:34:02.985Z,1002.71
2019-03-16T03:35:02.133Z,1002.71
2019-03-16T03:36:55.122Z,1002.73
2019-03-16T03:37:55.157Z,1002.75
2019-03-16T03:39:48.146Z,1002.75
2019-03-16T03:40:48.201Z,1002.73
2019-03-16T03:42:41.219Z,1002.65
2019-03-16T03:43:41.243Z,1002.65
2019-03-16T03:45:34.232Z,1002.59
2019-03-16T03:46:34.289Z,1002.59
2019-03-16T03:48:27.292Z,1002.61
2019-03-16T03:49:27.325Z,1002.65
2019-03-16T03:51:20.326Z,1002.66
2019-03-16T03:52:20.385Z,1002.68
2019-03-16T03:54:13.353Z,1002.70
2019-03-16T03:55:13.394Z,1002.69
2019-03-16T03:57:06.909Z,1002.76
2019-03-16T03:58:06.937Z,1002.76
2019-03-16T03:59:59.940Z,1002.77
2019-03-16T04:00:59.971Z,1002.76
2019-03-16T04:02:52.966Z,1002.72
2019-03-16T04:03:53.003Z,1002.79
2019-03-16T04:05:45.989Z,1002.72
2019-03-16T04:06:46.051Z,1002.66
2019-03-16T04:08:39.042Z,1002.69
2019-03-16T04:09:39.083Z,1002.61
2019-03-16T04:11:32.063Z,1002.69
2019-03-16T04:12:32.120Z,1002.68
2019-03-16T04:14:25.134Z,1002.76
2019-03-16T04:15:25.168Z,1002.71
2019-03-16T04:17:18.164Z,1002.66
2019-03-16T04:18:18.221Z,1002.65
2019-03-16T04:20:11.210Z,1002.64
2019-03-16T04:21:11.243Z,1002.70
2019-03-16T04:23:04.235Z,1002.75
2019-03-16T04:24:04.292Z,1002.71
2019-03-16T04:25:57.284Z,1002.66
2019-03-16T04:26:57.328Z,1002.67
2019-03-16T04:28:50.298Z,1002.65
2019-03-16T04:29:50.360Z,1002.70
2019-03-16T04:31:43.354Z,1002.67
2019-03-16T04:32:43.484Z,1002.63
2019-03-16T04:34:36.403Z,1002.64
2019-03-16T04:35:36.447Z,1002.65
2019-03-16T04:37:29.446Z,1002.68
2019-03-16T04:38:29.472Z,1002.64
2019-03-16T04:40:22.450Z,1002.63
2019-03-16T04:41:22.505Z,1002.65
2019-03-16T04:43:15.512Z,1002.64
2019-03-16T04:44:15.550Z,1002.56
2019-03-16T04:46:08.547Z,1002.51
2019-03-16T04:47:08.587Z,1002.59
2019-03-16T04:49:01.567Z,1002.60
2019-03-16T04:50:01.618Z,1002.58
2019-03-16T04:51:54.618Z,1002.59
2019-03-16T04:52:54.665Z,1002.59
2019-03-16T04:54:47.650Z,1002.56
2019-03-16T04:55:47.700Z,1002.58
2019-03-16T04:57:42.239Z,1002.56
2019-03-16T04:58:42.340Z,1002.59
2019-03-16T05:00:35.223Z,1002.59
2019-03-16T05:01:35.279Z,1002.59
2019-03-16T05:03:28.277Z,1002.58
2019-03-16T05:04:41.686Z,1002.63
2019-03-16T05:06:21.294Z,1002.65
2019-03-16T05:07:21.362Z,1002.61
2019-03-16T05:09:14.402Z,1002.62
2019-03-16T05:10:14.391Z,1002.60
2019-03-16T05:12:07.389Z,1002.56
2019-03-16T05:13:07.428Z,1002.49
2019-03-16T05:15:00.567Z,1002.51
2019-03-16T05:16:00.463Z,1002.54
2019-03-16T05:17:53.441Z,1002.53
2019-03-16T05:18:53.498Z,1002.51
2019-03-16T05:20:46.520Z,1002.53
2019-03-16T05:21:46.556Z,1002.49
2019-03-16T05:23:39.556Z,1002.50
2019-03-16T05:24:39.598Z,1002.54
2019-03-16T05:26:32.576Z,1002.50
2019-03-16T05:27:32.638Z,1002.47
2019-03-16T05:29:25.674Z,1002.45
2019-03-16T05:30:25.671Z,1002.40
2019-03-16T05:32:18.676Z,1002.43
2019-03-16T05:33:18.709Z,1002.45
2019-03-16T05:35:11.698Z,1002.41
2019-03-16T05:36:11.753Z,1002.45
2019-03-16T05:38:04.746Z,1002.40
2019-03-16T05:39:04.785Z,1002.38
2019-03-16T05:40:57.782Z,1002.34
2019-03-16T05:41:57.818Z,1002.30
2019-03-16T05:43:50.826Z,1002.35
2019-03-16T05:44:50.856Z,1002.32
2019-03-16T05:46:43.840Z,1002.34
2019-03-16T05:47:43.898Z,1002.35
2019-03-16T05:49:36.899Z,1002.38
2019-03-16T05:50:36.933Z,1002.40
2019-03-16T05:52:29.913Z,1002.42
2019-03-16T05:53:29.969Z,1002.39
2019-03-16T05:55:22.967Z,1002.39
2019-03-16T05:56:23.004Z,1002.39
2019-03-16T05:58:16.001Z,1002.39
2019-03-16T05:59:16.037Z,1002.40
2019-03-16T06:01:09.034Z,1002.37
2019-03-16T06:02:09.070Z,1002.39
2019-03-16T06:04:02.073Z,1002.37
2019-03-16T06:05:10.305Z,1002.35
2019-03-16T06:06:55.116Z,1002.39
2019-03-16T06:07:55.155Z,1002.41
2019-03-16T06:09:48.138Z,1002.45
2019-03-16T06:10:48.191Z,1002.41
2019-03-16T06:12:41.219Z,1002.42
2019-03-16T06:13:41.235Z,1002.39
2019-03-16T06:15:34.239Z,1002.39
2019-03-16T06:16:34.273Z,1002.38
2019-03-16T06:18:27.267Z,1002.37
2019-03-16T06:19:27.321Z,1002.39
2019-03-16T06:21:20.294Z,1002.40
2019-03-16T06:22:20.347Z,1002.43
2019-03-16T06:24:13.350Z,1002.40
2019-03-16T06:25:13.396Z,1002.41
2019-03-16T06:27:06.368Z,1002.38
2019-03-16T06:28:06.443Z,1002.42
2019-03-16T06:29:59.930Z,1002.35
2019-03-16T06:30:59.969Z,1002.35
2019-03-16T06:32:52.965Z,1002.34
2019-03-16T06:33:53.004Z,1002.30
2019-03-16T06:35:45.981Z,1002.27
2019-03-16T06:36:46.040Z,1002.27
2019-03-16T06:38:39.045Z,1002.21
2019-03-16T06:39:39.082Z,1002.22
2019-03-16T06:41:32.081Z,1002.28
2019-03-16T06:42:32.142Z,1002.27
2019-03-16T06:44:25.175Z,1002.19
2019-03-16T06:45:25.185Z,1002.14
2019-03-16T06:47:18.206Z,1002.13
2019-03-16T06:48:18.245Z,1002.08
2019-03-16T06:50:11.238Z,1002.11
2019-03-16T06:51:11.301Z,1002.06
2019-03-16T06:53:04.271Z,1002.04
2019-03-16T06:54:04.307Z,1002.04
2019-03-16T06:55:57.327Z,1001.97
2019-03-16T06:56:57.358Z,1001.92
2019-03-16T06:58:50.336Z,1001.88
2019-03-16T06:59:50.394Z,1001.79
2019-03-16T07:01:43.392Z,1001.82
2019-03-16T07:02:43.438Z,1001.82
2019-03-16T07:04:36.467Z,1001.80
2019-03-16T07:05:38.766Z,1001.77
2019-03-16T07:07:29.459Z,1001.74
2019-03-16T07:08:29.493Z,1001.65
2019-03-16T07:10:22.497Z,1001.63
2019-03-16T07:11:22.531Z,1001.62
2019-03-16T07:13:15.515Z,1001.59
2019-03-16T07:14:15.566Z,1001.56
2019-03-16T07:16:08.561Z,1001.49
2019-03-16T07:17:08.597Z,1001.50
2019-03-16T07:19:01.576Z,1001.49
2019-03-16T07:20:01.633Z,1001.52
2019-03-16T07:21:55.138Z,1001.43
2019-03-16T07:22:55.174Z,1001.42
2019-03-16T07:24:51.486Z,1001.40
2019-03-16T07:25:48.204Z,1001.43
2019-03-16T07:27:41.206Z,1001.44
2019-03-16T07:28:41.242Z,1001.37
2019-03-16T07:30:37.102Z,1001.41
2019-03-16T07:31:34.276Z,1001.43
2019-03-16T07:33:27.275Z,1001.39
2019-03-16T07:34:27.310Z,1001.34
2019-03-16T07:36:20.289Z,1001.39
2019-03-16T07:37:20.350Z,1001.46
2019-03-16T07:39:14.859Z,1001.33
2019-03-16T07:40:14.890Z,1001.40
2019-03-16T07:42:07.867Z,1001.36
2019-03-16T07:43:07.972Z,1001.42
2019-03-16T07:45:08.082Z,1001.40
2019-03-16T07:46:00.991Z,1001.41
2019-03-16T07:47:54.002Z,1001.42
2019-03-16T07:48:54.019Z,1001.39
2019-03-16T07:50:46.999Z,1001.35
2019-03-16T07:51:47.117Z,1001.32
2019-03-16T07:53:40.068Z,1001.27
2019-03-16T07:54:40.166Z,1001.30
2019-03-16T07:56:33.064Z,1001.26
2019-03-16T07:57:40.155Z,1001.30
2019-03-16T07:59:26.114Z,1001.21
2019-03-16T08:00:26.150Z,1001.20
2019-03-16T08:02:19.143Z,1001.18
2019-03-16T08:03:19.183Z,1001.21
2019-03-16T08:05:18.571Z,1001.16
2019-03-16T08:06:12.217Z,1001.16
2019-03-16T08:08:05.213Z,1001.17
2019-03-16T08:09:05.380Z,1001.12
2019-03-16T08:10:58.465Z,1001.19
2019-03-16T08:11:58.295Z,1001.15
2019-03-16T08:13:51.280Z,1001.05
2019-03-16T08:14:51.458Z,1001.07
2019-03-16T08:16:44.355Z,1001.06
2019-03-16T08:19:26.349Z,1001.12
2019-03-16T08:20:26.361Z,1001.08
2019-03-16T08:22:19.366Z,1001.00
2019-03-16T08:23:19.394Z,1000.98
2019-03-16T08:25:12.411Z,1000.99
2019-03-16T08:26:12.439Z,1000.97
2019-03-16T08:28:05.452Z,1000.87
2019-03-16T08:29:05.490Z,1000.83
2019-03-16T08:30:58.590Z,1000.77
2019-03-16T08:31:58.514Z,1000.76
2019-03-16T08:33:51.525Z,1000.73
2019-03-16T08:34:51.554Z,1000.75
2019-03-16T08:36:44.603Z,1000.70
2019-03-16T08:37:44.590Z,1000.71
2019-03-16T08:39:37.589Z,1000.73
2019-03-16T08:40:37.701Z,1000.76
2019-03-16T08:42:30.643Z,1000.75
2019-03-16T08:43:30.693Z,1000.74
2019-03-16T08:45:23.672Z,1000.63
2019-03-16T08:46:23.728Z,1000.63
2019-03-16T08:48:22.823Z,1000.65
2019-03-16T08:49:16.767Z,1000.63
2019-03-16T08:51:09.769Z,1000.56
2019-03-16T08:52:09.801Z,1000.58
2019-03-16T08:54:02.813Z,1000.56
2019-03-16T08:55:02.852Z,1000.53
2019-03-16T08:56:55.863Z,1000.56
2019-03-16T08:58:05.704Z,1000.52
2019-03-16T08:59:48.886Z,1000.53
2019-03-16T09:00:48.930Z,1000.51
2019-03-16T09:02:41.931Z,1000.50
2019-03-16T09:03:43.804Z,1000.44
2019-03-16T09:05:34.959Z,1000.47
2019-03-16T09:06:35.017Z,1000.49
2019-03-16T09:08:28.025Z,1000.51
2019-03-16T09:09:28.061Z,1000.45
2019-03-16T09:11:21.038Z,1000.52
2019-03-16T09:12:21.096Z,1000.47
2019-03-16T09:14:14.092Z,1000.45
2019-03-16T09:15:14.130Z,1000.45
2019-03-16T09:17:09.000Z,1000.40
2019-03-16T09:18:07.164Z,1000.39
2019-03-16T09:20:00.309Z,1000.43
2019-03-16T09:21:00.202Z,1000.39
2019-03-16T09:22:53.203Z,1000.39
2019-03-16T09:23:53.235Z,1000.35
2019-03-16T09:25:46.240Z,1000.36
2019-03-16T09:26:46.279Z,1000.26
2019-03-16T09:28:39.279Z,1000.26
2019-03-16T09:29:39.336Z,1000.30
2019-03-16T09:31:32.334Z,1000.35
2019-03-16T09:32:32.371Z,1000.40
2019-03-16T09:34:25.361Z,1000.31
2019-03-16T09:35:25.416Z,1000.30
2019-03-16T09:37:18.437Z,1000.35
2019-03-16T09:38:18.564Z,1000.22
2019-03-16T09:40:11.464Z,1000.30
2019-03-16T09:41:11.496Z,1000.26
2019-03-16T09:43:04.477Z,1000.22
2019-03-16T09:44:04.535Z,1000.34
2019-03-16T09:45:57.544Z,1000.36
2019-03-16T09:46:57.576Z,1000.33
2019-03-16T09:48:50.594Z,1000.29
2019-03-16T09:49:50.606Z,1000.31
2019-03-16T09:51:43.613Z,1000.25
2019-03-16T09:52:43.659Z,1000.28
2019-03-16T09:54:36.668Z,1000.23
2019-03-16T09:55:36.701Z,1000.35
2019-03-16T09:57:29.690Z,1000.31
2019-03-16T09:58:31.455Z,1000.27
2019-03-16T10:00:22.743Z,1000.24
2019-03-16T10:01:22.781Z,1000.16
2019-03-16T10:03:15.764Z,1000.33
2019-03-16T10:04:15.822Z,1000.23
2019-03-16T10:06:08.860Z,1000.26
2019-03-16T10:07:08.884Z,1000.24
2019-03-16T10:09:01.873Z,1000.19
2019-03-16T10:10:01.935Z,1000.26
2019-03-16T10:11:54.932Z,1000.23
2019-03-16T10:12:54.971Z,1000.22
2019-03-16T10:14:47.960Z,1000.19
2019-03-16T10:15:48.017Z,1000.15
2019-03-16T10:17:41.013Z,1000.18
2019-03-16T10:18:41.054Z,1000.12
2019-03-16T10:20:34.056Z,1000.09
2019-03-16T10:21:34.095Z,1000.08
2019-03-16T10:23:27.122Z,1000.14
2019-03-16T10:24:27.136Z,1000.13
2019-03-16T10:26:20.122Z,1000.09
2019-03-16T10:27:20.175Z,1000.07
2019-03-16T10:29:13.203Z,1000.13
2019-03-16T10:30:13.247Z,1000.14
2019-03-16T10:32:06.229Z,1000.06
2019-03-16T10:33:06.287Z,1000.10
2019-03-16T10:34:59.292Z,1000.08
2019-03-16T10:35:59.332Z,1000.06
2019-03-16T10:37:52.342Z,1000.09
2019-03-16T10:38:52.402Z,1000.06
2019-03-16T10:40:45.399Z,999.97
2019-03-16T10:41:45.438Z,1000.04
2019-03-16T10:43:38.418Z,1000.05
2019-03-16T10:44:38.478Z,1000.01
2019-03-16T10:46:31.491Z,1000.02
2019-03-16T10:47:31.522Z,999.91
2019-03-16T10:49:24.533Z,999.98
2019-03-16T10:50:24.566Z,1000.04
2019-03-16T10:52:17.567Z,1000.11
2019-03-16T10:53:17.622Z,1000.01
2019-03-16T10:55:10.612Z,999.91
2019-03-16T10:56:10.658Z,1000.03
2019-03-16T10:58:03.664Z,1000.01
2019-03-16T10:59:03.713Z,1000.00
2019-03-16T11:00:56.712Z,1000.07
2019-03-16T11:01:56.753Z,999.98
2019-03-16T11:03:49.781Z,999.93
2019-03-16T11:04:49.796Z,999.94
2019-03-16T11:06:42.794Z,1000.01
2019-03-16T11:07:42.834Z,999.97
2019-03-16T11:09:35.838Z,999.98
2019-03-16T11:10:35.882Z,1000.00
2019-03-16T11:12:28.917Z,1000.10
2019-03-16T11:13:28.937Z,1000.05
2019-03-16T11:15:21.938Z,1000.15
2019-03-16T11:16:21.993Z,999.99
2019-03-16T11:18:14.999Z,1000.04
2019-03-16T11:19:15.036Z,1000.00
2019-03-16T11:21:08.050Z,999.98
2019-03-16T11:22:08.079Z,1000.02
2019-03-16T11:24:01.077Z,999.97
2019-03-16T11:25:01.140Z,1000.02
2019-03-16T11:26:54.147Z,999.99
2019-03-16T11:27:54.192Z,999.95
2019-03-16T11:29:47.190Z,999.89
2019-03-16T11:30:47.229Z,999.90
2019-03-16T11:32:40.239Z,999.96
2019-03-16T11:33:40.274Z,999.76
2019-03-16T11:35:33.287Z,999.84
2019-03-16T11:36:33.411Z,999.85
2019-03-16T11:38:26.309Z,999.80
2019-03-16T11:39:26.369Z,999.86
2019-03-16T11:41:19.382Z,999.83
2019-03-16T11:42:19.428Z,999.77
2019-03-16T11:44:12.425Z,999.75
2019-03-16T11:45:12.465Z,999.72
2019-03-16T11:47:05.462Z,999.80
2019-03-16T11:48:05.500Z,999.73
2019-03-16T11:49:58.507Z,999.77
2019-03-16T11:50:58.535Z,999.79
2019-03-16T11:52:51.537Z,999.72
2019-03-16T11:53:51.595Z,999.75
2019-03-16T11:55:44.574Z,999.75
2019-03-16T11:56:44.625Z,999.75
2019-03-16T11:58:37.613Z,999.70
2019-03-16T11:59:37.658Z,999.65
2019-03-16T12:01:30.655Z,999.70
2019-03-16T12:02:30.693Z,999.66
2019-03-16T12:04:23.755Z,999.56
2019-03-16T12:05:23.729Z,999.55
2019-03-16T12:07:16.723Z,999.59
2019-03-16T12:08:16.996Z,999.57
2019-03-16T12:10:09.768Z,999.66
2019-03-16T12:11:09.805Z,999.61
2019-03-16T12:13:02.788Z,999.62
2019-03-16T12:14:02.845Z,999.61
2019-03-16T12:16:01.102Z,999.48
2019-03-16T12:17:08.699Z,999.56
2019-03-16T12:19:05.505Z,999.58
2019-03-16T12:20:05.565Z,999.52
2019-03-16T12:22:33.091Z,999.49
2019-03-16T12:23:33.120Z,999.51
2019-03-16T12:25:26.259Z,999.46
2019-03-16T12:26:26.161Z,999.51
2019-03-16T12:29:16.704Z,999.49
2019-03-16T12:30:16.743Z,999.42
2019-03-16T12:34:27.820Z,999.09
2019-03-16T12:35:27.835Z,999.34
2019-03-16T12:39:04.355Z,999.39
2019-03-16T12:40:04.415Z,999.23
2019-03-16T12:44:03.968Z,999.26
2019-03-16T12:45:03.998Z,999.16
2019-03-16T12:49:26.750Z,999.24
2019-03-16T12:50:26.849Z,999.17
2019-03-16T12:52:42.815Z,999.18
2019-03-16T12:53:42.846Z,999.12
2019-03-16T12:55:59.083Z,999.09
2019-03-16T12:56:59.116Z,999.06
2019-03-16T12:58:52.114Z,999.10
2019-03-16T12:59:52.154Z,999.00
2019-03-16T13:01:45.134Z,998.99
2019-03-16T13:02:45.204Z,999.11
2019-03-16T13:05:01.247Z,999.00
2019-03-16T13:06:02.590Z,999.01
2019-03-16T13:07:54.266Z,999.01
2019-03-16T13:08:54.312Z,998.97
2019-03-16T13:10:47.313Z,998.95
2019-03-16T13:11:47.345Z,999.04
2019-03-16T13:13:51.853Z,999.15
2019-03-16T13:14:51.891Z,999.09
2019-03-16T13:17:31.548Z,999.13
2019-03-16T13:18:31.590Z,999.13
2019-03-16T13:20:24.570Z,999.09
2019-03-16T13:21:24.637Z,999.07
2019-03-16T13:23:29.161Z,999.08
2019-03-16T13:24:29.196Z,999.04
2019-03-16T13:26:45.201Z,999.00
2019-03-16T13:27:45.257Z,999.01
2019-03-16T13:30:24.922Z,999.05
2019-03-16T13:31:24.954Z,999.05
2019-03-16T13:33:53.463Z,999.02
2019-03-16T13:34:52.565Z,998.98
2019-03-16T13:37:08.645Z,998.92
2019-03-16T13:38:08.679Z,998.96
2019-03-16T13:40:36.276Z,999.01
2019-03-16T13:41:36.333Z,998.97
2019-03-16T13:45:01.860Z,998.96
2019-03-16T13:46:02.612Z,998.99
2019-03-16T13:47:55.405Z,998.99
2019-03-16T13:48:54.946Z,998.93
2019-03-16T13:50:47.957Z,998.73
2019-03-16T13:51:48.002Z,998.98
2019-03-16T13:54:38.811Z,998.89
2019-03-16T13:55:38.855Z,998.93
2019-03-16T13:57:43.921Z,999.03
2019-03-16T13:58:43.932Z,998.95
2019-03-16T14:00:37.028Z,998.83
2019-03-16T14:01:36.975Z,998.88
2019-03-16T14:04:27.843Z,998.84
2019-03-16T14:05:27.870Z,998.84
2019-03-16T14:07:55.476Z,998.76
2019-03-16T14:08:55.533Z,998.68
2019-03-16T14:10:48.595Z,998.78
2019-03-16T14:11:48.571Z,998.73
2019-03-16T14:13:41.548Z,998.68
2019-03-16T14:14:41.606Z,998.66
2019-03-16T14:16:34.686Z,998.83
2019-03-16T14:17:34.648Z,998.71
2019-03-16T14:19:27.623Z,998.66
2019-03-16T14:20:27.686Z,998.63
2019-03-16T14:22:20.727Z,998.72
2019-03-16T14:23:20.761Z,998.62
2019-03-16T14:25:13.881Z,998.61
2019-03-16T14:26:13.802Z,998.55
2019-03-16T14:28:06.865Z,998.50
2019-03-16T14:29:06.839Z,998.50
2019-03-16T14:30:59.832Z,998.47
2019-03-16T14:31:59.876Z,998.40
2019-03-16T14:34:04.522Z,998.38
2019-03-16T14:35:04.558Z,998.37
2019-03-16T14:36:57.642Z,998.44
2019-03-16T14:37:57.603Z,998.40
2019-03-16T14:40:02.179Z,998.40
2019-03-16T14:41:02.222Z,998.35
2019-03-16T14:43:41.592Z,998.35
2019-03-16T14:44:41.602Z,998.28
2019-03-16T14:46:46.107Z,998.33
2019-03-16T14:47:46.172Z,998.21
2019-03-16T14:49:50.779Z,998.22
2019-03-16T14:50:50.802Z,998.17
2019-03-16T14:53:06.857Z,998.18
2019-03-16T14:54:06.892Z,998.18
2019-03-16T14:56:00.092Z,998.23
2019-03-16T14:57:01.948Z,998.24
2019-03-16T14:58:53.132Z,998.17
2019-03-16T14:59:53.182Z,998.14
2019-03-16T15:01:46.226Z,998.19
2019-03-16T15:02:46.805Z,998.29
2019-03-16T15:04:53.633Z,998.05
2019-03-16T15:05:51.485Z,998.17
2019-03-16T15:11:13.935Z,998.08
2019-03-16T15:12:15.936Z,998.08
2019-03-16T15:14:22.011Z,998.07
2019-03-16T15:15:17.642Z,998.00
2019-03-16T15:17:33.636Z,998.16
2019-03-16T15:18:36.008Z,997.98
2019-03-16T15:20:29.805Z,998.09
2019-03-16T15:21:29.749Z,997.92
2019-03-16T15:23:57.298Z,997.91
2019-03-16T15:24:57.310Z,997.84
2019-03-16T15:26:50.341Z,997.87
2019-03-16T15:27:50.359Z,998.09
2019-03-16T15:29:43.885Z,997.98
2019-03-16T15:30:50.729Z,997.86
2019-03-16T15:32:36.895Z,997.86
2019-03-16T15:33:36.949Z,997.89
2019-03-16T15:35:29.948Z,997.88
2019-03-16T15:36:30.002Z,997.86
2019-03-16T15:38:22.967Z,997.86
2019-03-16T15:39:23.027Z,997.91
2019-03-16T15:41:27.536Z,997.90
2019-03-16T15:42:27.616Z,997.84
2019-03-16T15:44:32.109Z,997.91
2019-03-16T15:45:32.146Z,997.86
2019-03-16T15:47:25.110Z,997.98
2019-03-16T15:48:25.161Z,997.68
2019-03-16T15:50:18.464Z,997.79
2019-03-16T15:51:18.474Z,997.86
2019-03-16T15:53:23.026Z,997.96
2019-03-16T15:54:23.111Z,997.84
2019-03-16T15:56:36.106Z,997.95
2019-03-16T15:57:35.937Z,997.89
2019-03-16T15:59:40.456Z,997.74
2019-03-16T16:00:40.488Z,997.78
2019-03-16T16:02:44.969Z,997.77
2019-03-16T16:03:45.026Z,997.78
2019-03-16T16:05:50.045Z,997.75
2019-03-16T16:06:50.094Z,997.71
2019-03-16T16:08:43.133Z,997.71
2019-03-16T16:09:43.134Z,997.71
2019-03-16T16:11:36.235Z,997.76
2019-03-16T16:12:36.190Z,997.74
2019-03-16T16:29:50.082Z,997.63
2019-03-16T16:30:50.121Z,997.55
2019-03-16T16:36:33.274Z,997.50
2019-03-16T16:37:33.306Z,997.45
2019-03-16T16:42:18.874Z,997.47
2019-03-16T16:43:19.042Z,997.46
2019-03-16T16:55:46.191Z,997.34
2019-03-16T16:56:46.224Z,997.31
2019-03-16T16:59:13.743Z,997.27
2019-03-16T17:00:13.780Z,997.34
2019-03-16T17:02:06.781Z,997.28
2019-03-16T17:03:06.841Z,997.29
2019-03-16T17:04:59.840Z,997.26
2019-03-16T17:05:59.874Z,997.20
2019-03-16T17:08:15.887Z,997.23
2019-03-16T17:09:15.938Z,997.20
2019-03-16T17:47:24.879Z,996.91
2019-03-16T17:48:24.919Z,996.99
2019-03-16T18:27:53.421Z,996.89
2019-03-16T18:28:53.444Z,996.88
2019-03-16T19:51:43.931Z,996.25
2019-03-16T19:52:43.957Z,996.25
2019-03-16T19:57:41.017Z,996.18
2019-03-16T19:58:41.073Z,996.28
2019-03-16T20:15:10.016Z,995.89
2019-03-16T20:16:09.947Z,995.87
2019-03-16T20:18:48.974Z,995.80
2019-03-16T20:19:49.005Z,995.83
2019-03-16T20:21:41.992Z,995.80
2019-03-16T20:22:42.043Z,995.69
2019-03-16T20:32:27.276Z,995.45
2019-03-16T20:33:27.285Z,995.42
2019-03-16T21:30:12.110Z,994.87
2019-03-16T21:31:12.151Z,994.85
2019-03-16T21:33:05.150Z,994.79
2019-03-16T21:34:05.186Z,994.80
2019-03-16T21:35:58.171Z,994.79
2019-03-16T21:36:58.229Z,994.84
2019-03-16T21:38:51.226Z,994.78
2019-03-16T21:39:51.262Z,994.87
2019-03-16T21:41:44.555Z,994.80
2019-03-16T21:42:44.308Z,994.68
2019-03-16T21:44:37.305Z,994.90
2019-03-16T21:45:37.345Z,994.84
2019-03-16T21:47:30.365Z,994.67
2019-03-16T21:48:30.426Z,994.67
2019-03-16T21:50:23.417Z,994.72
2019-03-16T21:51:23.438Z,994.64
2019-03-16T21:53:16.434Z,994.57
2019-03-16T21:54:16.580Z,994.71
2019-03-16T21:56:09.472Z,994.57
2019-03-16T21:57:09.629Z,994.63
2019-03-16T21:59:02.516Z,994.72
2019-03-16T22:00:02.559Z,994.66
2019-03-16T22:01:55.634Z,994.67
2019-03-16T22:02:55.670Z,994.56
2019-03-16T22:04:48.653Z,994.58
2019-03-16T22:05:48.708Z,994.56
2019-03-16T22:07:41.707Z,994.58
2019-03-16T22:08:41.753Z,994.54
2019-03-16T22:10:34.799Z,994.59
2019-03-16T22:11:34.825Z,994.41
2019-03-16T22:13:27.784Z,994.51
2019-03-16T22:14:27.842Z,994.56
2019-03-16T22:16:20.853Z,994.45
2019-03-16T22:17:20.891Z,994.50
2019-03-16T22:19:13.898Z,994.46
2019-03-16T22:20:13.936Z,994.36
2019-03-16T22:22:07.004Z,994.34
2019-03-16T22:23:06.979Z,994.26
2019-03-16T22:24:59.981Z,994.31
2019-03-16T22:26:00.017Z,994.19
2019-03-16T22:27:53.051Z,994.32
2019-03-16T22:28:53.089Z,994.30
2019-03-16T22:30:46.071Z,994.32
2019-03-16T22:31:46.127Z,994.27
2019-03-16T22:33:39.131Z,994.20
2019-03-16T22:34:39.164Z,994.18
2019-03-16T22:36:32.150Z,994.14
2019-03-16T22:37:32.203Z,994.16